Buck Creek, Indiana
Current Conditions -  °F | °C
As of 7:54 AM on Tuesday 21 Oct 2014 (Local Time) from KLAF Reporting Station
Overcast Overcast  
Wind Chill:   Ceiling: 4600
Heat Index:   Visibility: 10mi
Dew Point:   Wind: 8mph
Humidity: 89%   Direction: 310°NW
Pressure: 30.05"   Gusts: NA
Location:  40.49°N, 86.76°W
Report Text: KLAF 211154Z 31007KT 10SM SCT023 SCT031 OVC046 09/07 A3005 RMK AO2 SLP175 T00890072 10089 20056 51017
Loading
Personal Weather Stations






























Interactive Weather Map
Tropical Storm Tracking
New forecast layout! Learn more

10-Day Weather Forecast

Advertisements
Track Severe Weather on mobile